sensor_id;sensor_type;location;lat;lon;timestamp;P1;durP1;ratioP1;P2;durP2;ratioP2
54959;SDS011;40860;51.710;8.736;2023-07-13T00:00:52;5.15;;;2.60;;
54959;SDS011;40860;51.710;8.736;2023-07-13T00:04:59;6.07;;;2.60;;
54959;SDS011;40860;51.710;8.736;2023-07-13T00:09:05;3.78;;;2.60;;
54959;SDS011;40860;51.710;8.736;2023-07-13T00:13:16;4.00;;;2.75;;
54959;SDS011;40860;51.710;8.736;2023-07-13T00:17:21;4.07;;;2.60;;
54959;SDS011;40860;51.710;8.736;2023-07-13T00:21:24;4.80;;;2.63;;
54959;SDS011;40860;51.710;8.736;2023-07-13T00:25:27;7.50;;;3.00;;
54959;SDS011;40860;51.710;8.736;2023-07-13T00:29:30;4.40;;;2.85;;
54959;SDS011;40860;51.710;8.736;2023-07-13T00:33:36;4.65;;;2.83;;
54959;SDS011;40860;51.710;8.736;2023-07-13T00:37:39;4.40;;;2.60;;
54959;SDS011;40860;51.710;8.736;2023-07-13T00:41:42;6.38;;;2.90;;
54959;SDS011;40860;51.710;8.736;2023-07-13T00:50:18;5.75;;;3.03;;
54959;SDS011;40860;51.710;8.736;2023-07-13T00:54:25;6.10;;;3.25;;
54959;SDS011;40860;51.710;8.736;2023-07-13T00:58:30;6.97;;;3.13;;
54959;SDS011;40860;51.710;8.736;2023-07-13T01:02:34;6.00;;;2.75;;
54959;SDS011;40860;51.710;8.736;2023-07-13T01:06:41;6.05;;;3.15;;
54959;SDS011;40860;51.710;8.736;2023-07-13T01:10:50;5.90;;;3.28;;
54959;SDS011;40860;51.710;8.736;2023-07-13T01:14:56;6.07;;;3.00;;
54959;SDS011;40860;51.710;8.736;2023-07-13T01:19:01;6.20;;;2.95;;
54959;SDS011;40860;51.710;8.736;2023-07-13T01:23:11;5.15;;;2.95;;
54959;SDS011;40860;51.710;8.736;2023-07-13T01:27:15;6.45;;;3.00;;
54959;SDS011;40860;51.710;8.736;2023-07-13T01:31:20;6.68;;;3.10;;
54959;SDS011;40860;51.710;8.736;2023-07-13T01:35:24;5.43;;;2.90;;
54959;SDS011;40860;51.710;8.736;2023-07-13T01:39:29;4.93;;;3.10;;
54959;SDS011;40860;51.710;8.736;2023-07-13T01:43:33;6.65;;;3.05;;
54959;SDS011;40860;51.710;8.736;2023-07-13T01:47:36;5.97;;;3.00;;
54959;SDS011;40860;51.710;8.736;2023-07-13T01:51:39;6.00;;;3.20;;
54959;SDS011;40860;51.710;8.736;2023-07-13T01:55:43;6.20;;;3.10;;
54959;SDS011;40860;51.710;8.736;2023-07-13T01:59:46;6.05;;;3.72;;
54959;SDS011;40860;51.710;8.736;2023-07-13T02:03:49;7.82;;;3.17;;
54959;SDS011;40860;51.710;8.736;2023-07-13T02:07:54;7.47;;;3.50;;
54959;SDS011;40860;51.710;8.736;2023-07-13T02:12:00;5.88;;;3.20;;
54959;SDS011;40860;51.710;8.736;2023-07-13T02:16:07;4.22;;;3.00;;
54959;SDS011;40860;51.710;8.736;2023-07-13T02:20:10;3.65;;;2.50;;
54959;SDS011;40860;51.710;8.736;2023-07-13T02:24:13;5.75;;;2.80;;
54959;SDS011;40860;51.710;8.736;2023-07-13T02:28:20;5.47;;;2.60;;
54959;SDS011;40860;51.710;8.736;2023-07-13T02:32:23;7.70;;;2.53;;
54959;SDS011;40860;51.710;8.736;2023-07-13T02:36:32;6.20;;;2.70;;
54959;SDS011;40860;51.710;8.736;2023-07-13T02:40:35;7.40;;;2.38;;
54959;SDS011;40860;51.710;8.736;2023-07-13T02:44:40;6.18;;;2.65;;
54959;SDS011;40860;51.710;8.736;2023-07-13T02:48:43;5.70;;;2.42;;
54959;SDS011;40860;51.710;8.736;2023-07-13T02:52:47;4.25;;;2.33;;
54959;SDS011;40860;51.710;8.736;2023-07-13T02:56:50;5.20;;;2.28;;
54959;SDS011;40860;51.710;8.736;2023-07-13T03:00:55;5.35;;;2.03;;
54959;SDS011;40860;51.710;8.736;2023-07-13T03:05:00;6.07;;;2.22;;
54959;SDS011;40860;51.710;8.736;2023-07-13T03:09:03;3.60;;;2.30;;
54959;SDS011;40860;51.710;8.736;2023-07-13T03:13:08;5.18;;;2.13;;
54959;SDS011;40860;51.710;8.736;2023-07-13T03:17:13;2.88;;;2.38;;
54959;SDS011;40860;51.710;8.736;2023-07-13T03:21:17;6.95;;;2.28;;
54959;SDS011;40860;51.710;8.736;2023-07-13T03:25:20;6.82;;;2.40;;
54959;SDS011;40860;51.710;8.736;2023-07-13T03:29:24;4.90;;;2.22;;
54959;SDS011;40860;51.710;8.736;2023-07-13T03:33:28;4.68;;;2.13;;
54959;SDS011;40860;51.710;8.736;2023-07-13T03:37:31;4.45;;;2.30;;
54959;SDS011;40860;51.710;8.736;2023-07-13T03:41:34;5.68;;;2.03;;
54959;SDS011;40860;51.710;8.736;2023-07-13T03:45:38;5.90;;;2.00;;
54959;SDS011;40860;51.710;8.736;2023-07-13T03:49:42;5.40;;;2.00;;
54959;SDS011;40860;51.710;8.736;2023-07-13T03:53:47;5.45;;;2.35;;
54959;SDS011;40860;51.710;8.736;2023-07-13T03:57:54;6.35;;;2.17;;
54959;SDS011;40860;51.710;8.736;2023-07-13T04:02:00;4.25;;;1.70;;
54959;SDS011;40860;51.710;8.736;2023-07-13T04:06:12;5.75;;;2.20;;
54959;SDS011;40860;51.710;8.736;2023-07-13T04:10:22;5.20;;;1.98;;
54959;SDS011;40860;51.710;8.736;2023-07-13T04:14:25;4.38;;;1.75;;
54959;SDS011;40860;51.710;8.736;2023-07-13T04:18:28;7.30;;;2.28;;
54959;SDS011;40860;51.710;8.736;2023-07-13T04:22:32;4.72;;;2.15;;
54959;SDS011;40860;51.710;8.736;2023-07-13T04:26:35;4.50;;;1.92;;
54959;SDS011;40860;51.710;8.736;2023-07-13T04:30:39;7.28;;;1.80;;
54959;SDS011;40860;51.710;8.736;2023-07-13T04:34:42;4.13;;;1.85;;
54959;SDS011;40860;51.710;8.736;2023-07-13T04:38:46;5.13;;;1.75;;
54959;SDS011;40860;51.710;8.736;2023-07-13T04:42:50;5.55;;;2.22;;
54959;SDS011;40860;51.710;8.736;2023-07-13T04:46:52;5.05;;;1.67;;
54959;SDS011;40860;51.710;8.736;2023-07-13T04:50:56;6.72;;;1.73;;
54959;SDS011;40860;51.710;8.736;2023-07-13T04:55:01;4.10;;;1.83;;
54959;SDS011;40860;51.710;8.736;2023-07-13T04:59:04;6.15;;;1.83;;
54959;SDS011;40860;51.710;8.736;2023-07-13T05:03:07;2.75;;;1.30;;
54959;SDS011;40860;51.710;8.736;2023-07-13T05:07:10;4.32;;;1.73;;
54959;SDS011;40860;51.710;8.736;2023-07-13T05:11:14;5.05;;;1.90;;
54959;SDS011;40860;51.710;8.736;2023-07-13T05:15:17;5.05;;;1.83;;
54959;SDS011;40860;51.710;8.736;2023-07-13T05:19:23;5.72;;;1.50;;
54959;SDS011;40860;51.710;8.736;2023-07-13T05:23:28;7.60;;;1.80;;
54959;SDS011;40860;51.710;8.736;2023-07-13T05:27:33;6.40;;;1.70;;
54959;SDS011;40860;51.710;8.736;2023-07-13T05:31:39;4.20;;;1.80;;
54959;SDS011;40860;51.710;8.736;2023-07-13T05:35:44;4.20;;;1.70;;
54959;SDS011;40860;51.710;8.736;2023-07-13T05:39:49;4.72;;;1.83;;
54959;SDS011;40860;51.710;8.736;2023-07-13T05:43:53;4.40;;;1.50;;
54959;SDS011;40860;51.710;8.736;2023-07-13T05:47:56;5.43;;;1.63;;
54959;SDS011;40860;51.710;8.736;2023-07-13T05:51:59;7.45;;;2.20;;
54959;SDS011;40860;51.710;8.736;2023-07-13T05:56:02;3.85;;;1.63;;
54959;SDS011;40860;51.710;8.736;2023-07-13T06:00:07;6.30;;;1.65;;
54959;SDS011;40860;51.710;8.736;2023-07-13T06:04:14;5.35;;;1.60;;
54959;SDS011;40860;51.710;8.736;2023-07-13T06:08:16;7.63;;;1.98;;
54959;SDS011;40860;51.710;8.736;2023-07-13T06:12:19;3.20;;;1.80;;
54959;SDS011;40860;51.710;8.736;2023-07-13T06:16:24;5.25;;;1.60;;
54959;SDS011;40860;51.710;8.736;2023-07-13T06:20:26;2.20;;;1.50;;
54959;SDS011;40860;51.710;8.736;2023-07-13T06:24:31;6.22;;;1.90;;
54959;SDS011;40860;51.710;8.736;2023-07-13T06:28:34;8.07;;;2.10;;
54959;SDS011;40860;51.710;8.736;2023-07-13T06:32:39;4.90;;;1.75;;
54959;SDS011;40860;51.710;8.736;2023-07-13T06:36:42;7.90;;;1.98;;
54959;SDS011;40860;51.710;8.736;2023-07-13T06:40:45;9.63;;;2.05;;
54959;SDS011;40860;51.710;8.736;2023-07-13T06:44:48;4.93;;;2.00;;
54959;SDS011;40860;51.710;8.736;2023-07-13T06:48:52;4.75;;;1.88;;
54959;SDS011;40860;51.710;8.736;2023-07-13T06:52:55;6.50;;;2.20;;
54959;SDS011;40860;51.710;8.736;2023-07-13T06:56:58;8.07;;;1.90;;
54959;SDS011;40860;51.710;8.736;2023-07-13T07:01:01;6.57;;;2.00;;
54959;SDS011;40860;51.710;8.736;2023-07-13T07:05:05;5.72;;;2.10;;
54959;SDS011;40860;51.710;8.736;2023-07-13T07:09:08;5.57;;;1.88;;
54959;SDS011;40860;51.710;8.736;2023-07-13T07:13:11;7.35;;;1.85;;
54959;SDS011;40860;51.710;8.736;2023-07-13T07:17:14;4.90;;;2.00;;
54959;SDS011;40860;51.710;8.736;2023-07-13T07:21:18;6.03;;;1.88;;
54959;SDS011;40860;51.710;8.736;2023-07-13T07:25:21;9.55;;;2.25;;
54959;SDS011;40860;51.710;8.736;2023-07-13T07:29:24;4.57;;;1.80;;
54959;SDS011;40860;51.710;8.736;2023-07-13T07:33:32;6.78;;;1.58;;
54959;SDS011;40860;51.710;8.736;2023-07-13T07:37:37;7.15;;;1.95;;
54959;SDS011;40860;51.710;8.736;2023-07-13T07:41:43;5.47;;;2.28;;
54959;SDS011;40860;51.710;8.736;2023-07-13T07:45:57;4.55;;;1.60;;
54959;SDS011;40860;51.710;8.736;2023-07-13T07:50:03;4.70;;;1.90;;
54959;SDS011;40860;51.710;8.736;2023-07-13T07:54:08;4.65;;;1.80;;
54959;SDS011;40860;51.710;8.736;2023-07-13T07:58:16;8.18;;;2.42;;
54959;SDS011;40860;51.710;8.736;2023-07-13T08:02:39;4.20;;;1.80;;
54959;SDS011;40860;51.710;8.736;2023-07-13T08:07:02;3.75;;;1.95;;
54959;SDS011;40860;51.710;8.736;2023-07-13T08:11:07;5.80;;;2.00;;
54959;SDS011;40860;51.710;8.736;2023-07-13T08:15:15;3.67;;;2.15;;
54959;SDS011;40860;51.710;8.736;2023-07-13T08:19:21;6.13;;;2.00;;
54959;SDS011;40860;51.710;8.736;2023-07-13T08:23:24;5.22;;;1.92;;
54959;SDS011;40860;51.710;8.736;2023-07-13T08:27:29;6.55;;;2.17;;
54959;SDS011;40860;51.710;8.736;2023-07-13T08:31:32;6.68;;;2.03;;
54959;SDS011;40860;51.710;8.736;2023-07-13T08:35:34;5.55;;;2.28;;
54959;SDS011;40860;51.710;8.736;2023-07-13T08:39:37;9.10;;;2.65;;
54959;SDS011;40860;51.710;8.736;2023-07-13T08:43:42;5.75;;;2.42;;
54959;SDS011;40860;51.710;8.736;2023-07-13T08:47:51;5.22;;;2.25;;
54959;SDS011;40860;51.710;8.736;2023-07-13T08:51:58;5.47;;;2.03;;
54959;SDS011;40860;51.710;8.736;2023-07-13T08:56:04;3.03;;;1.85;;
54959;SDS011;40860;51.710;8.736;2023-07-13T09:00:14;6.15;;;2.50;;
54959;SDS011;40860;51.710;8.736;2023-07-13T09:04:18;6.00;;;2.50;;
54959;SDS011;40860;51.710;8.736;2023-07-13T09:08:29;6.35;;;2.65;;
54959;SDS011;40860;51.710;8.736;2023-07-13T09:12:52;4.72;;;2.08;;
54959;SDS011;40860;51.710;8.736;2023-07-13T09:17:10;5.53;;;2.13;;
54959;SDS011;40860;51.710;8.736;2023-07-13T09:21:17;5.63;;;2.35;;
54959;SDS011;40860;51.710;8.736;2023-07-13T09:25:27;7.22;;;2.45;;
54959;SDS011;40860;51.710;8.736;2023-07-13T09:29:33;8.30;;;2.30;;
54959;SDS011;40860;51.710;8.736;2023-07-13T09:33:38;5.35;;;2.33;;
54959;SDS011;40860;51.710;8.736;2023-07-13T09:37:41;5.65;;;2.25;;
54959;SDS011;40860;51.710;8.736;2023-07-13T09:41:48;7.60;;;2.55;;
54959;SDS011;40860;51.710;8.736;2023-07-13T09:45:57;4.13;;;2.25;;
54959;SDS011;40860;51.710;8.736;2023-07-13T09:50:02;5.43;;;2.20;;
54959;SDS011;40860;51.710;8.736;2023-07-13T09:54:15;4.97;;;2.50;;
54959;SDS011;40860;51.710;8.736;2023-07-13T09:58:21;8.23;;;2.65;;
54959;SDS011;40860;51.710;8.736;2023-07-13T10:02:34;7.00;;;2.53;;
54959;SDS011;40860;51.710;8.736;2023-07-13T10:06:39;6.43;;;2.25;;
54959;SDS011;40860;51.710;8.736;2023-07-13T10:10:44;5.57;;;2.28;;
54959;SDS011;40860;51.710;8.736;2023-07-13T10:14:47;5.53;;;2.30;;
54959;SDS011;40860;51.710;8.736;2023-07-13T10:18:51;3.35;;;1.83;;
54959;SDS011;40860;51.710;8.736;2023-07-13T10:23:00;5.05;;;2.28;;
54959;SDS011;40860;51.710;8.736;2023-07-13T10:27:09;4.10;;;1.98;;
54959;SDS011;40860;51.710;8.736;2023-07-13T10:31:17;5.38;;;2.13;;
54959;SDS011;40860;51.710;8.736;2023-07-13T10:35:22;6.65;;;2.47;;
54959;SDS011;40860;51.710;8.736;2023-07-13T10:39:27;4.72;;;1.95;;
54959;SDS011;40860;51.710;8.736;2023-07-13T10:43:33;5.05;;;2.38;;
54959;SDS011;40860;51.710;8.736;2023-07-13T10:47:39;5.18;;;2.30;;
54959;SDS011;40860;51.710;8.736;2023-07-13T10:51:43;5.78;;;2.00;;
54959;SDS011;40860;51.710;8.736;2023-07-13T10:55:58;4.70;;;1.92;;
54959;SDS011;40860;51.710;8.736;2023-07-13T11:00:14;4.88;;;2.30;;
54959;SDS011;40860;51.710;8.736;2023-07-13T11:04:19;3.63;;;1.95;;
54959;SDS011;40860;51.710;8.736;2023-07-13T11:08:31;4.75;;;2.15;;
54959;SDS011;40860;51.710;8.736;2023-07-13T11:12:52;5.80;;;1.98;;
54959;SDS011;40860;51.710;8.736;2023-07-13T11:16:56;5.28;;;2.60;;
54959;SDS011;40860;51.710;8.736;2023-07-13T11:21:12;8.98;;;2.70;;
54959;SDS011;40860;51.710;8.736;2023-07-13T11:25:31;3.47;;;1.67;;
54959;SDS011;40860;51.710;8.736;2023-07-13T11:29:37;4.70;;;2.33;;
54959;SDS011;40860;51.710;8.736;2023-07-13T11:33:56;6.28;;;2.10;;
54959;SDS011;40860;51.710;8.736;2023-07-13T11:38:00;3.97;;;2.03;;
54959;SDS011;40860;51.710;8.736;2023-07-13T11:42:05;3.40;;;1.70;;
54959;SDS011;40860;51.710;8.736;2023-07-13T11:46:15;4.82;;;2.17;;
54959;SDS011;40860;51.710;8.736;2023-07-13T11:50:23;4.32;;;2.10;;
54959;SDS011;40860;51.710;8.736;2023-07-13T11:54:27;4.53;;;1.67;;
54959;SDS011;40860;51.710;8.736;2023-07-13T11:58:31;4.50;;;1.95;;
54959;SDS011;40860;51.710;8.736;2023-07-13T12:02:37;4.18;;;2.13;;
54959;SDS011;40860;51.710;8.736;2023-07-13T12:06:47;4.82;;;2.20;;
54959;SDS011;40860;51.710;8.736;2023-07-13T12:11:03;4.72;;;1.98;;
54959;SDS011;40860;51.710;8.736;2023-07-13T12:15:07;5.13;;;1.80;;
54959;SDS011;40860;51.710;8.736;2023-07-13T12:19:18;2.30;;;1.95;;
54959;SDS011;40860;51.710;8.736;2023-07-13T12:23:23;3.28;;;1.58;;
54959;SDS011;40860;51.710;8.736;2023-07-13T12:27:30;4.10;;;1.50;;
54959;SDS011;40860;51.710;8.736;2023-07-13T12:31:35;3.15;;;1.58;;
54959;SDS011;40860;51.710;8.736;2023-07-13T12:35:42;2.80;;;1.90;;
54959;SDS011;40860;51.710;8.736;2023-07-13T12:39:48;3.28;;;1.90;;
54959;SDS011;40860;51.710;8.736;2023-07-13T12:43:52;4.97;;;1.67;;
54959;SDS011;40860;51.710;8.736;2023-07-13T12:47:56;4.30;;;1.73;;
54959;SDS011;40860;51.710;8.736;2023-07-13T12:52:03;4.25;;;2.05;;
54959;SDS011;40860;51.710;8.736;2023-07-13T12:56:18;6.45;;;2.00;;
54959;SDS011;40860;51.710;8.736;2023-07-13T13:00:26;5.03;;;2.60;;
54959;SDS011;40860;51.710;8.736;2023-07-13T13:04:33;4.35;;;1.73;;
54959;SDS011;40860;51.710;8.736;2023-07-13T13:08:42;3.92;;;1.98;;
54959;SDS011;40860;51.710;8.736;2023-07-13T13:12:45;3.47;;;1.90;;
54959;SDS011;40860;51.710;8.736;2023-07-13T13:16:49;7.40;;;2.03;;
54959;SDS011;40860;51.710;8.736;2023-07-13T13:20:54;4.32;;;1.90;;
54959;SDS011;40860;51.710;8.736;2023-07-13T13:24:59;6.82;;;2.38;;
54959;SDS011;40860;51.710;8.736;2023-07-13T13:29:09;7.18;;;1.88;;
54959;SDS011;40860;51.710;8.736;2023-07-13T13:33:18;4.95;;;1.95;;
54959;SDS011;40860;51.710;8.736;2023-07-13T13:37:23;3.88;;;1.95;;
54959;SDS011;40860;51.710;8.736;2023-07-13T13:41:28;5.40;;;2.03;;
54959;SDS011;40860;51.710;8.736;2023-07-13T13:45:31;4.35;;;2.10;;
54959;SDS011;40860;51.710;8.736;2023-07-13T13:49:34;5.72;;;2.05;;
54959;SDS011;40860;51.710;8.736;2023-07-13T13:53:37;5.45;;;1.80;;
54959;SDS011;40860;51.710;8.736;2023-07-13T13:57:42;3.50;;;1.67;;
54959;SDS011;40860;51.710;8.736;2023-07-13T14:01:45;6.05;;;2.65;;
54959;SDS011;40860;51.710;8.736;2023-07-13T14:05:50;4.82;;;2.20;;
54959;SDS011;40860;51.710;8.736;2023-07-13T14:09:54;3.65;;;1.63;;
54959;SDS011;40860;51.710;8.736;2023-07-13T14:14:01;3.65;;;1.50;;
54959;SDS011;40860;51.710;8.736;2023-07-13T14:18:07;4.57;;;1.63;;
54959;SDS011;40860;51.710;8.736;2023-07-13T14:22:11;2.35;;;1.45;;
54959;SDS011;40860;51.710;8.736;2023-07-13T14:26:15;3.33;;;1.83;;
54959;SDS011;40860;51.710;8.736;2023-07-13T14:30:21;3.47;;;1.52;;
54959;SDS011;40860;51.710;8.736;2023-07-13T14:34:24;3.78;;;1.70;;
54959;SDS011;40860;51.710;8.736;2023-07-13T14:38:27;7.50;;;1.98;;
54959;SDS011;40860;51.710;8.736;2023-07-13T14:42:30;3.80;;;1.83;;
54959;SDS011;40860;51.710;8.736;2023-07-13T14:46:35;2.45;;;1.50;;
54959;SDS011;40860;51.710;8.736;2023-07-13T14:50:38;3.15;;;1.65;;
54959;SDS011;40860;51.710;8.736;2023-07-13T14:54:43;3.92;;;2.13;;
54959;SDS011;40860;51.710;8.736;2023-07-13T14:58:47;3.45;;;1.77;;
54959;SDS011;40860;51.710;8.736;2023-07-13T15:02:52;2.35;;;1.70;;
54959;SDS011;40860;51.710;8.736;2023-07-13T15:06:57;3.70;;;2.05;;
54959;SDS011;40860;51.710;8.736;2023-07-13T15:11:01;4.63;;;2.63;;
54959;SDS011;40860;51.710;8.736;2023-07-13T15:15:06;7.07;;;2.72;;
54959;SDS011;40860;51.710;8.736;2023-07-13T15:19:11;4.68;;;2.40;;
54959;SDS011;40860;51.710;8.736;2023-07-13T15:23:15;4.28;;;2.38;;
54959;SDS011;40860;51.710;8.736;2023-07-13T15:27:19;4.68;;;2.70;;
54959;SDS011;40860;51.710;8.736;2023-07-13T15:31:23;5.53;;;2.38;;
54959;SDS011;40860;51.710;8.736;2023-07-13T15:35:29;2.90;;;2.58;;
54959;SDS011;40860;51.710;8.736;2023-07-13T15:39:32;5.25;;;2.38;;
54959;SDS011;40860;51.710;8.736;2023-07-13T15:43:36;3.30;;;2.55;;
54959;SDS011;40860;51.710;8.736;2023-07-13T15:47:42;4.68;;;3.33;;
54959;SDS011;40860;51.710;8.736;2023-07-13T15:51:47;4.88;;;3.67;;
54959;SDS011;40860;51.710;8.736;2023-07-13T15:55:51;3.53;;;3.08;;
54959;SDS011;40860;51.710;8.736;2023-07-13T15:59:54;3.25;;;2.97;;
54959;SDS011;40860;51.710;8.736;2023-07-13T16:03:57;3.42;;;3.13;;
54959;SDS011;40860;51.710;8.736;2023-07-13T16:08:02;6.45;;;3.45;;
54959;SDS011;40860;51.710;8.736;2023-07-13T16:12:09;3.00;;;2.70;;
54959;SDS011;40860;51.710;8.736;2023-07-13T16:16:13;3.63;;;3.00;;
54959;SDS011;40860;51.710;8.736;2023-07-13T16:20:17;2.83;;;2.63;;
54959;SDS011;40860;51.710;8.736;2023-07-13T16:24:23;3.03;;;2.83;;
54959;SDS011;40860;51.710;8.736;2023-07-13T16:28:27;5.45;;;2.75;;
54959;SDS011;40860;51.710;8.736;2023-07-13T16:32:30;4.30;;;2.90;;
54959;SDS011;40860;51.710;8.736;2023-07-13T16:36:33;2.75;;;2.47;;
54959;SDS011;40860;51.710;8.736;2023-07-13T16:40:37;3.42;;;2.78;;
54959;SDS011;40860;51.710;8.736;2023-07-13T16:44:40;4.18;;;2.60;;
54959;SDS011;40860;51.710;8.736;2023-07-13T16:48:44;2.95;;;2.47;;
54959;SDS011;40860;51.710;8.736;2023-07-13T16:52:47;4.30;;;2.58;;
54959;SDS011;40860;51.710;8.736;2023-07-13T16:56:52;2.90;;;2.40;;
54959;SDS011;40860;51.710;8.736;2023-07-13T17:00:55;2.30;;;2.10;;
54959;SDS011;40860;51.710;8.736;2023-07-13T17:04:59;2.55;;;2.10;;
54959;SDS011;40860;51.710;8.736;2023-07-13T17:09:04;2.72;;;2.28;;
54959;SDS011;40860;51.710;8.736;2023-07-13T17:13:13;2.20;;;2.00;;
54959;SDS011;40860;51.710;8.736;2023-07-13T17:17:19;2.10;;;1.90;;
54959;SDS011;40860;51.710;8.736;2023-07-13T17:21:30;2.63;;;2.20;;
54959;SDS011;40860;51.710;8.736;2023-07-13T17:25:33;3.38;;;2.03;;
54959;SDS011;40860;51.710;8.736;2023-07-13T17:29:37;2.90;;;2.40;;
54959;SDS011;40860;51.710;8.736;2023-07-13T17:33:41;2.50;;;1.90;;
54959;SDS011;40860;51.710;8.736;2023-07-13T17:37:45;3.13;;;1.92;;
54959;SDS011;40860;51.710;8.736;2023-07-13T17:41:49;3.75;;;2.40;;
54959;SDS011;40860;51.710;8.736;2023-07-13T17:45:53;3.03;;;2.55;;
54959;SDS011;40860;51.710;8.736;2023-07-13T17:49:58;3.83;;;2.38;;
54959;SDS011;40860;51.710;8.736;2023-07-13T17:54:02;4.57;;;3.10;;
54959;SDS011;40860;51.710;8.736;2023-07-13T17:58:10;4.32;;;2.33;;
54959;SDS011;40860;51.710;8.736;2023-07-13T18:02:16;2.80;;;2.38;;
54959;SDS011;40860;51.710;8.736;2023-07-13T18:06:23;5.00;;;2.40;;
54959;SDS011;40860;51.710;8.736;2023-07-13T18:10:31;2.78;;;2.30;;
54959;SDS011;40860;51.710;8.736;2023-07-13T18:14:34;3.75;;;2.33;;
54959;SDS011;40860;51.710;8.736;2023-07-13T18:18:40;2.97;;;2.17;;
54959;SDS011;40860;51.710;8.736;2023-07-13T18:22:44;3.20;;;2.00;;
54959;SDS011;40860;51.710;8.736;2023-07-13T18:26:48;3.25;;;2.63;;
54959;SDS011;40860;51.710;8.736;2023-07-13T18:30:53;4.43;;;2.85;;
54959;SDS011;40860;51.710;8.736;2023-07-13T18:35:00;5.63;;;4.50;;
54959;SDS011;40860;51.710;8.736;2023-07-13T18:39:04;4.65;;;3.75;;
54959;SDS011;40860;51.710;8.736;2023-07-13T18:43:13;5.45;;;3.40;;
54959;SDS011;40860;51.710;8.736;2023-07-13T18:47:17;6.72;;;3.78;;
54959;SDS011;40860;51.710;8.736;2023-07-13T18:51:25;9.35;;;4.03;;
54959;SDS011;40860;51.710;8.736;2023-07-13T18:55:29;4.28;;;3.67;;
54959;SDS011;40860;51.710;8.736;2023-07-13T18:59:32;5.28;;;4.07;;
54959;SDS011;40860;51.710;8.736;2023-07-13T19:03:35;4.22;;;3.80;;
54959;SDS011;40860;51.710;8.736;2023-07-13T19:07:40;4.80;;;3.60;;
54959;SDS011;40860;51.710;8.736;2023-07-13T19:11:44;5.63;;;3.30;;
54959;SDS011;40860;51.710;8.736;2023-07-13T19:15:47;4.53;;;3.08;;
54959;SDS011;40860;51.710;8.736;2023-07-13T19:19:50;4.60;;;4.18;;
54959;SDS011;40860;51.710;8.736;2023-07-13T19:23:55;4.35;;;3.50;;
54959;SDS011;40860;51.710;8.736;2023-07-13T19:27:59;3.50;;;3.08;;
54959;SDS011;40860;51.710;8.736;2023-07-13T19:32:04;4.50;;;3.10;;
54959;SDS011;40860;51.710;8.736;2023-07-13T19:36:09;3.55;;;3.03;;
54959;SDS011;40860;51.710;8.736;2023-07-13T19:40:17;4.85;;;3.30;;
54959;SDS011;40860;51.710;8.736;2023-07-13T19:44:22;4.63;;;2.58;;
54959;SDS011;40860;51.710;8.736;2023-07-13T19:48:27;3.40;;;2.78;;
54959;SDS011;40860;51.710;8.736;2023-07-13T19:52:31;3.78;;;3.30;;
54959;SDS011;40860;51.710;8.736;2023-07-13T19:56:35;2.92;;;2.72;;
54959;SDS011;40860;51.710;8.736;2023-07-13T20:00:38;2.50;;;2.30;;
54959;SDS011;40860;51.710;8.736;2023-07-13T20:04:42;2.40;;;2.20;;
54959;SDS011;40860;51.710;8.736;2023-07-13T20:08:45;4.07;;;2.72;;
54959;SDS011;40860;51.710;8.736;2023-07-13T20:12:50;3.22;;;2.53;;
54959;SDS011;40860;51.710;8.736;2023-07-13T20:16:57;2.50;;;2.30;;
54959;SDS011;40860;51.710;8.736;2023-07-13T20:21:03;4.35;;;2.78;;
54959;SDS011;40860;51.710;8.736;2023-07-13T20:25:09;2.58;;;2.08;;
54959;SDS011;40860;51.710;8.736;2023-07-13T20:29:18;3.60;;;2.10;;
54959;SDS011;40860;51.710;8.736;2023-07-13T20:33:22;3.10;;;2.28;;
54959;SDS011;40860;51.710;8.736;2023-07-13T20:37:29;3.67;;;2.50;;
54959;SDS011;40860;51.710;8.736;2023-07-13T20:41:34;4.60;;;2.20;;
54959;SDS011;40860;51.710;8.736;2023-07-13T20:45:41;2.30;;;2.10;;
54959;SDS011;40860;51.710;8.736;2023-07-13T20:49:45;3.40;;;2.00;;
54959;SDS011;40860;51.710;8.736;2023-07-13T20:53:48;2.75;;;2.03;;
54959;SDS011;40860;51.710;8.736;2023-07-13T20:57:54;2.33;;;2.10;;
54959;SDS011;40860;51.710;8.736;2023-07-13T21:01:59;3.88;;;2.42;;
54959;SDS011;40860;51.710;8.736;2023-07-13T21:06:05;3.05;;;2.53;;
54959;SDS011;40860;51.710;8.736;2023-07-13T21:10:19;2.78;;;2.28;;
54959;SDS011;40860;51.710;8.736;2023-07-13T21:14:23;2.75;;;2.25;;
54959;SDS011;40860;51.710;8.736;2023-07-13T21:18:27;4.18;;;2.80;;
54959;SDS011;40860;51.710;8.736;2023-07-13T21:22:30;2.95;;;2.40;;
54959;SDS011;40860;51.710;8.736;2023-07-13T21:26:33;4.97;;;2.80;;
54959;SDS011;40860;51.710;8.736;2023-07-13T21:30:38;3.72;;;2.85;;
54959;SDS011;40860;51.710;8.736;2023-07-13T21:34:44;5.57;;;3.05;;
54959;SDS011;40860;51.710;8.736;2023-07-13T21:38:48;3.47;;;3.17;;
54959;SDS011;40860;51.710;8.736;2023-07-13T21:42:56;3.88;;;3.08;;
54959;SDS011;40860;51.710;8.736;2023-07-13T21:46:59;3.63;;;3.20;;
54959;SDS011;40860;51.710;8.736;2023-07-13T21:51:07;4.82;;;3.33;;
54959;SDS011;40860;51.710;8.736;2023-07-13T21:55:23;4.00;;;3.20;;
54959;SDS011;40860;51.710;8.736;2023-07-13T21:59:28;3.67;;;2.97;;
54959;SDS011;40860;51.710;8.736;2023-07-13T22:03:33;7.72;;;3.20;;
54959;SDS011;40860;51.710;8.736;2023-07-13T22:07:39;4.95;;;3.10;;
54959;SDS011;40860;51.710;8.736;2023-07-13T22:11:42;6.95;;;3.10;;
54959;SDS011;40860;51.710;8.736;2023-07-13T22:15:45;4.63;;;2.95;;
54959;SDS011;40860;51.710;8.736;2023-07-13T22:19:48;3.80;;;3.00;;
54959;SDS011;40860;51.710;8.736;2023-07-13T22:23:54;3.58;;;3.00;;
54959;SDS011;40860;51.710;8.736;2023-07-13T22:27:58;6.32;;;3.20;;
54959;SDS011;40860;51.710;8.736;2023-07-13T22:32:01;5.05;;;2.88;;
54959;SDS011;40860;51.710;8.736;2023-07-13T22:36:04;4.35;;;2.95;;
54959;SDS011;40860;51.710;8.736;2023-07-13T22:40:13;4.15;;;3.10;;
54959;SDS011;40860;51.710;8.736;2023-07-13T22:44:18;4.35;;;2.95;;
54959;SDS011;40860;51.710;8.736;2023-07-13T22:48:23;4.47;;;2.75;;
54959;SDS011;40860;51.710;8.736;2023-07-13T22:52:27;5.93;;;3.42;;
54959;SDS011;40860;51.710;8.736;2023-07-13T22:56:31;4.13;;;2.92;;
54959;SDS011;40860;51.710;8.736;2023-07-13T23:00:34;6.00;;;3.00;;
54959;SDS011;40860;51.710;8.736;2023-07-13T23:04:38;4.82;;;3.00;;
54959;SDS011;40860;51.710;8.736;2023-07-13T23:08:41;4.10;;;2.50;;
54959;SDS011;40860;51.710;8.736;2023-07-13T23:12:45;3.08;;;2.63;;
54959;SDS011;40860;51.710;8.736;2023-07-13T23:16:48;9.15;;;3.00;;
54959;SDS011;40860;51.710;8.736;2023-07-13T23:20:51;4.18;;;2.72;;
54959;SDS011;40860;51.710;8.736;2023-07-13T23:24:54;6.43;;;2.65;;
54959;SDS011;40860;51.710;8.736;2023-07-13T23:28:58;5.35;;;2.88;;
54959;SDS011;40860;51.710;8.736;2023-07-13T23:33:02;6.18;;;2.80;;
54959;SDS011;40860;51.710;8.736;2023-07-13T23:37:14;4.45;;;2.60;;
54959;SDS011;40860;51.710;8.736;2023-07-13T23:41:19;4.00;;;2.60;;
54959;SDS011;40860;51.710;8.736;2023-07-13T23:45:25;3.40;;;2.58;;
54959;SDS011;40860;51.710;8.736;2023-07-13T23:49:29;3.38;;;2.83;;
54959;SDS011;40860;51.710;8.736;2023-07-13T23:53:34;5.32;;;3.03;;
54959;SDS011;40860;51.710;8.736;2023-07-13T23:57:37;4.85;;;2.85;;
